Time;durP1;ratioP1;P1;durP2;ratioP2;P2;SDS_P1;SDS_P2;PMS_P1;PMS_P2;Temp;Humidity;BMP_temperature;BMP_pressure;BME280_temperature;BME280_humidity;BME280_pressure;Samples;Min_cycle;Max_cycle;Signal;HPM_P1;HPM_P2
2022/10/19 05:54:35;;;;;;;9.55;1.02;;;17.10;71.20;;;;;;4966978;24;20055;-75
2022/10/19 05:57:01;;;;;;;8.75;1.42;;;17.10;71.40;;;;;;4790004;30;20120;-73
2022/10/19 05:59:27;;;;;;;17.92;2.10;;;17.20;71.80;;;;;;4790150;30;20054;-74
2022/10/19 06:01:52;;;;;;;14.05;1.70;;;17.20;72.20;;;;;;4790224;30;20055;-74
2022/10/19 06:04:18;;;;;;;16.83;1.83;;;17.20;72.50;;;;;;4790039;30;20455;-75
2022/10/19 06:06:44;;;;;;;13.95;1.75;;;17.20;72.80;;;;;;4789520;30;20138;-74
2022/10/19 06:09:10;;;;;;;17.33;2.28;;;17.30;73.20;;;;;;4790019;30;20066;-72
2022/10/19 06:11:39;;;;;;;18.20;1.55;;;17.30;73.30;;;;;;4775084;30;20055;-72
2022/10/19 06:14:10;;;;;;;17.63;2.08;;;17.20;73.50;;;;;;4774170;30;20124;-73
2022/10/19 06:16:36;;;;;;;18.92;1.48;;;17.30;73.50;;;;;;4789250;30;20455;-73
2022/10/19 06:19:04;;;;;;;13.32;1.63;;;17.20;73.50;;;;;;4789159;30;20059;-72
2022/10/19 06:21:31;;;;;;;15.90;1.48;;;17.20;73.60;;;;;;4789903;30;20062;-73
2022/10/19 06:24:09;;;;;;;17.02;1.77;;;17.20;72.50;;;;;;4790482;30;20051;-78
2022/10/19 06:26:37;;;;;;;14.93;2.33;;;17.20;73.20;;;;;;4788745;30;20138;-82
2022/10/19 06:29:03;;;;;;;14.05;1.48;;;17.20;73.20;;;;;;4790014;30;20047;-78
2022/10/19 06:31:35;;;;;;;18.73;1.52;;;17.10;72.50;;;;;;4789879;30;20086;-72
2022/10/19 06:34:00;;;;;;;15.40;1.63;;;17.10;71.20;;;;;;4789727;30;20051;-73
2022/10/19 06:36:29;;;;;;;11.32;1.10;;;17.10;70.50;;;;;;4789777;30;20051;-73
2022/10/19 06:38:58;;;;;;;21.80;2.38;;;17.00;69.00;;;;;;4789851;30;20098;-73
2022/10/19 06:41:24;;;;;;;15.15;1.55;;;16.80;68.60;;;;;;4788709;30;20059;-77
2022/10/19 06:43:51;;;;;;;7.38;1.80;;;16.60;68.40;;;;;;4789632;30;20081;-77
2022/10/19 06:46:19;;;;;;;9.88;1.83;;;16.50;68.80;;;;;;4789525;30;20044;-73
2022/10/19 06:48:56;;;;;;;12.05;1.98;;;16.40;68.10;;;;;;4789702;30;20055;-78
2022/10/19 06:51:24;;;;;;;13.25;1.80;;;16.30;69.90;;;;;;4788872;30;20105;-75
2022/10/19 06:53:51;;;;;;;10.82;1.67;;;16.40;69.10;;;;;;4790290;30;20517;-75
2022/10/19 06:56:17;;;;;;;10.95;1.60;;;16.40;67.40;;;;;;4806594;29;20463;-74
2022/10/19 06:58:43;;;;;;;8.75;1.58;;;16.30;67.10;;;;;;4807907;29;20065;-76
2022/10/19 07:01:09;;;;;;;8.80;1.45;;;16.30;67.10;;;;;;4806946;29;20055;-74
2022/10/19 07:03:35;;;;;;;7.82;1.00;;;16.30;67.20;;;;;;4807284;29;20063;-74
2022/10/19 07:06:06;;;;;;;9.60;1.65;;;16.30;67.40;;;;;;4807428;29;20051;-73
2022/10/19 07:08:33;;;;;;;6.05;1.08;;;16.20;67.40;;;;;;4791758;29;20130;-72
2022/10/19 07:11:02;;;;;;;10.13;2.70;;;16.30;68.10;;;;;;4807580;29;20066;-72
2022/10/19 07:13:28;;;;;;;10.65;1.58;;;16.30;66.60;;;;;;4807850;29;20089;-76
2022/10/19 07:16:10;;;;;;;6.57;1.02;;;16.30;65.70;;;;;;4799133;29;20142;-72
2022/10/19 07:18:37;;;;;;;12.10;1.85;;;16.20;65.20;;;;;;4807138;29;20123;-73
2022/10/19 07:21:08;;;;;;;10.85;1.30;;;16.10;65.20;;;;;;4810393;29;20051;-72
2022/10/19 07:23:36;;;;;;;11.32;2.40;;;16.00;65.40;;;;;;4810212;29;20046;-77
2022/10/19 07:26:06;;;;;;;10.20;1.50;;;15.90;66.50;;;;;;4809331;29;20093;-78
2022/10/19 07:28:34;;;;;;;9.48;1.63;;;15.90;67.00;;;;;;4794632;29;20051;-78
2022/10/19 07:31:07;;;;;;;11.07;1.50;;;15.90;67.30;;;;;;4810311;29;20050;-75
2022/10/19 07:33:36;;;;;;;;;;;15.90;68.00;;;;;;4810904;29;20038;-80
2022/10/19 07:36:05;;;;;;;8.80;1.48;;;16.00;68.30;;;;;;4809090;29;19921;-81
2022/10/19 07:38:32;;;;;;;16.25;1.98;;;16.00;68.20;;;;;;4794472;29;20042;-76
2022/10/19 07:41:11;;;;;;;11.02;1.90;;;16.10;68.00;;;;;;4810327;29;20371;-73
2022/10/19 07:43:38;;;;;;;9.90;2.17;;;16.10;68.20;;;;;;4794401;29;20050;-79
2022/10/19 07:46:15;;;;;;;10.35;2.10;;;16.10;69.80;;;;;;4810703;29;20047;-75
2022/10/19 07:48:41;;;;;;;16.80;1.73;;;16.10;69.40;;;;;;4810195;29;20042;-75
2022/10/19 07:51:08;;;;;;;11.63;2.22;;;16.10;69.70;;;;;;4810286;29;20116;-76
2022/10/19 07:53:36;;;;;;;8.40;0.90;;;16.10;70.10;;;;;;4810121;29;20070;-75
2022/10/19 07:56:06;;;;;;;8.07;1.30;;;16.20;70.40;;;;;;4810249;29;20067;-74
2022/10/19 07:58:33;;;;;;;9.68;1.77;;;16.10;70.70;;;;;;4810204;29;20058;-73
2022/10/19 08:01:08;;;;;;;10.93;2.10;;;16.20;71.00;;;;;;4809872;29;20059;-73
2022/10/19 08:03:34;;;;;;;7.57;1.63;;;16.20;71.00;;;;;;4809967;29;20374;-74
2022/10/19 08:06:05;;;;;;;12.05;1.73;;;16.20;70.90;;;;;;4809803;29;20050;-74
2022/10/19 08:08:31;;;;;;;16.50;2.88;;;16.20;71.20;;;;;;4809757;29;20059;-75
2022/10/19 08:11:04;;;;;;;16.77;1.90;;;16.20;71.50;;;;;;4809813;29;20086;-71
2022/10/19 08:13:30;;;;;;;14.80;1.85;;;16.20;71.60;;;;;;4809693;29;20097;-74
2022/10/19 08:15:56;;;;;;;14.85;2.17;;;16.30;71.80;;;;;;4810186;29;20082;-75
2022/10/19 08:18:22;;;;;;;10.32;1.85;;;16.30;71.90;;;;;;4809319;29;20050;-81
2022/10/19 08:20:48;;;;;;;9.43;1.58;;;16.30;72.20;;;;;;4809358;29;20063;-79
2022/10/19 08:23:14;;;;;;;9.13;1.60;;;16.30;72.10;;;;;;4809472;29;20057;-78
2022/10/19 08:25:42;;;;;;;13.18;2.15;;;16.30;72.00;;;;;;4809694;29;20046;-80
2022/10/19 08:28:08;;;;;;;8.68;1.70;;;16.40;72.20;;;;;;4793671;29;20043;-76
2022/10/19 08:30:35;;;;;;;13.55;2.35;;;16.40;72.50;;;;;;4809423;29;20042;-77
2022/10/19 08:33:03;;;;;;;14.13;2.40;;;16.40;72.50;;;;;;4793035;29;20459;-75
2022/10/19 08:35:30;;;;;;;13.43;2.03;;;16.40;72.40;;;;;;4808942;29;20054;-76
2022/10/19 08:37:56;;;;;;;13.30;1.88;;;16.40;72.40;;;;;;4800148;29;20050;-77
2022/10/19 08:40:50;;;;;;;13.52;2.22;;;16.30;72.60;;;;;;4807060;29;20047;-82
2022/10/19 08:43:31;;;;;;;9.27;1.77;;;16.30;74.20;;;;;;4807261;29;20137;-76
2022/10/19 08:46:07;;;;;;;16.80;2.25;;;16.30;72.90;;;;;;4808139;29;20043;-77
2022/10/19 08:48:36;;;;;;;14.15;1.55;;;16.20;72.90;;;;;;4809143;29;20051;-76
2022/10/19 08:51:04;;;;;;;23.52;2.60;;;16.20;72.90;;;;;;4808719;29;20091;-75
2022/10/19 08:53:42;;;;;;;7.55;1.45;;;16.20;71.70;;;;;;4809023;29;20419;-76
2022/10/19 08:56:25;;;;;;;7.07;1.42;;;16.20;69.50;;;;;;4809243;29;20146;-76
2022/10/19 08:59:12;;;;;;;15.48;1.60;;;16.00;68.60;;;;;;4808825;29;20123;-77
2022/10/19 09:01:59;;;;;;;20.48;1.88;;;15.90;69.50;;;;;;4808149;29;20070;-74
2022/10/19 09:04:30;;;;;;;8.10;1.02;;;15.80;70.60;;;;;;4808871;29;20482;-76
2022/10/19 09:07:15;;;;;;;13.60;1.17;;;15.80;71.00;;;;;;4807759;29;20055;-71
2022/10/19 09:09:46;;;;;;;8.82;1.48;;;15.80;71.40;;;;;;4808886;29;20060;-74
2022/10/19 09:12:23;;;;;;;17.10;2.35;;;15.80;70.90;;;;;;4806927;29;20107;-74
2022/10/19 09:15:02;;;;;;;11.25;1.20;;;15.90;71.50;;;;;;4808720;29;20050;-80
2022/10/19 09:17:29;;;;;;;9.13;1.60;;;16.00;71.50;;;;;;4793268;29;20454;-74
2022/10/19 09:19:57;;;;;;;11.10;1.48;;;16.00;70.50;;;;;;4809160;29;20055;-78
2022/10/19 09:22:28;;;;;;;10.95;1.10;;;16.00;69.90;;;;;;4808396;29;20058;-79
2022/10/19 09:24:59;;;;;;;10.00;1.90;;;16.10;70.20;;;;;;4808550;29;20087;-79
2022/10/19 09:27:32;;;;;;;12.60;1.70;;;16.10;69.60;;;;;;4792978;29;20518;-78
2022/10/19 09:30:02;;;;;;;6.80;1.08;;;16.10;69.70;;;;;;4793137;29;20142;-77
2022/10/19 09:32:34;;;;;;;12.57;1.67;;;16.10;69.80;;;;;;4808147;29;20065;-79
2022/10/19 09:35:26;;;;;;;6.05;0.98;;;16.20;69.90;;;;;;4808127;29;20042;-79
2022/10/19 09:37:53;;;;;;;4.03;1.00;;;16.20;70.00;;;;;;4808721;29;20047;-78
2022/10/19 09:40:28;;;;;;;6.32;1.23;;;16.20;70.20;;;;;;4793171;29;20055;-77
2022/10/19 09:43:08;;;;;;;8.18;0.60;;;16.20;70.30;;;;;;4807919;29;20062;-78
2022/10/19 09:46:04;;;;;;;8.82;1.33;;;16.20;70.40;;;;;;4793025;29;20078;-78
2022/10/19 09:48:51;;;;;;;4.60;1.38;;;16.20;70.60;;;;;;4808368;29;20058;-77
2022/10/19 09:51:18;;;;;;;6.88;1.35;;;16.20;70.70;;;;;;4792596;29;20082;-79
2022/10/19 09:53:51;;;;;;;7.28;1.23;;;16.20;70.80;;;;;;4808394;29;20050;-80
2022/10/19 09:56:28;;;;;;;8.80;1.00;;;16.30;70.90;;;;;;4787740;30;20120;-80
2022/10/19 09:58:57;;;;;;;4.28;0.95;;;16.20;70.70;;;;;;4782811;30;20051;-78
2022/10/19 10:01:34;;;;;;;6.35;1.10;;;16.20;70.50;;;;;;4759796;30;20467;-78
2022/10/19 10:04:15;;;;;;;5.97;1.15;;;16.20;69.90;;;;;;4789930;30;20047;-76
2022/10/19 10:06:43;;;;;;;6.78;1.50;;;16.30;69.20;;;;;;4789751;30;20047;-78
2022/10/19 10:09:24;;;;;;;6.38;0.90;;;16.20;68.60;;;;;;4789787;30;20055;-75
2022/10/19 10:11:52;;;;;;;8.48;1.20;;;16.30;68.70;;;;;;4789975;30;20059;-76
2022/10/19 10:14:40;;;;;;;5.65;0.90;;;16.20;68.70;;;;;;4790693;30;20067;-75
2022/10/19 10:17:21;;;;;;;11.35;1.45;;;16.30;68.90;;;;;;4789610;30;20040;-80
2022/10/19 10:20:04;;;;;;;6.82;0.82;;;16.20;69.20;;;;;;4789523;30;20051;-76
2022/10/19 10:22:35;;;;;;;10.75;1.38;;;16.20;69.90;;;;;;4789901;30;20039;-78
2022/10/19 10:25:11;;;;;;;12.23;1.58;;;16.30;70.00;;;;;;4790088;30;20087;-77
2022/10/19 10:27:38;;;;;;;14.20;2.05;;;16.20;70.70;;;;;;4774967;30;20051;-78
2022/10/19 10:30:18;;;;;;;13.15;1.90;;;16.20;71.20;;;;;;4773878;30;20132;-75
2022/10/19 10:32:51;;;;;;;7.80;1.30;;;16.30;71.80;;;;;;4789830;30;20047;-76
2022/10/19 10:35:33;;;;;;;12.02;1.60;;;16.30;71.90;;;;;;4789437;30;20058;-79
2022/10/19 10:38:16;;;;;;;8.25;1.30;;;16.40;72.00;;;;;;4790135;30;20352;-76
2022/10/19 10:40:52;;;;;;;12.10;1.75;;;16.40;71.80;;;;;;4789267;30;20413;-80
2022/10/19 10:43:21;;;;;;;21.30;7.57;;;16.40;71.90;;;;;;4790204;30;20070;-77
2022/10/19 10:45:53;;;;;;;11.43;3.15;;;16.40;71.50;;;;;;4789669;30;20054;-76
2022/10/19 10:48:35;;;;;;;13.50;2.42;;;16.50;71.60;;;;;;4789696;30;20123;-78
2022/10/19 10:51:01;;;;;;;11.65;2.42;;;16.50;71.70;;;;;;4789258;30;20051;-76
2022/10/19 10:53:42;;;;;;;12.77;2.40;;;16.60;71.90;;;;;;4789799;29;20051;-75
2022/10/19 10:56:28;;;;;;;14.02;3.28;;;16.60;72.00;;;;;;4792470;29;20399;-75
2022/10/19 10:59:05;;;;;;;8.57;3.05;;;16.60;71.80;;;;;;4793066;30;20071;-75
2022/10/19 11:01:43;;;;;;;17.90;3.65;;;16.70;73.10;;;;;;4777499;30;20063;-73
2022/10/19 11:04:16;;;;;;;18.70;3.97;;;16.90;73.30;;;;;;4792928;30;20054;-73
2022/10/19 11:06:51;;;;;;;11.02;3.17;;;17.00;73.20;;;;;;4776772;30;20054;-76
2022/10/19 11:09:28;;;;;;;13.32;3.08;;;17.10;72.90;;;;;;4792588;30;20082;-74
2022/10/19 11:12:00;;;;;;;16.65;3.17;;;17.20;72.70;;;;;;4792496;30;20055;-72
2022/10/19 11:14:32;;;;;;;13.18;2.72;;;17.20;72.40;;;;;;4793075;30;20175;-71
2022/10/19 11:17:03;;;;;;;10.02;2.10;;;17.20;71.60;;;;;;4792365;30;20093;-72
2022/10/19 11:19:34;;;;;;;13.35;2.67;;;17.20;70.90;;;;;;4792987;30;20105;-72
2022/10/19 11:22:22;;;;;;;4.05;1.33;;;17.20;70.30;;;;;;4792920;30;20051;-71
2022/10/19 11:25:12;;;;;;;7.55;1.67;;;17.20;69.60;;;;;;4792512;30;20059;-72
2022/10/19 11:28:05;;;;;;;11.05;1.30;;;17.20;69.50;;;;;;4791855;30;20059;-71
2022/10/19 11:30:39;;;;;;;6.30;1.20;;;17.10;68.70;;;;;;4792821;30;20066;-72
2022/10/19 11:33:23;;;;;;;6.18;1.23;;;17.10;68.70;;;;;;4792494;30;20055;-72
2022/10/19 11:35:52;;;;;;;;;;;17.10;68.70;;;;;;4793087;30;20090;-71
2022/10/19 11:38:45;;;;;;;8.57;1.52;;;17.00;69.10;;;;;;4792383;30;19925;-75
2022/10/19 11:41:28;;;;;;;9.50;1.55;;;17.00;69.30;;;;;;4792190;30;20452;-71
2022/10/19 11:44:45;;;;;;;10.60;1.45;;;17.00;69.70;;;;;;4785121;30;20059;-70
2022/10/19 11:47:28;;;;;;;4.72;1.40;;;17.00;69.90;;;;;;4748870;30;20429;-71
2022/10/19 11:50:24;;;;;;;8.82;1.60;;;17.00;70.00;;;;;;4774636;30;20214;-70
2022/10/19 11:53:08;;;;;;;4.40;1.00;;;17.00;69.60;;;;;;4774714;30;20067;-72
2022/10/19 11:55:45;;;;;;;10.85;0.88;;;17.00;69.30;;;;;;4774340;30;20056;-71
2022/10/19 11:58:43;;;;;;;4.60;0.80;;;17.00;69.10;;;;;;4774283;30;20097;-71
2022/10/19 12:01:35;;;;;;;6.50;0.93;;;17.00;68.90;;;;;;4777734;30;20055;-70
2022/10/19 12:04:27;;;;;;;8.75;1.33;;;17.00;69.00;;;;;;4792633;30;20396;-71
2022/10/19 12:07:17;;;;;;;6.75;1.30;;;16.90;68.20;;;;;;4792145;30;20416;-72
2022/10/19 12:09:59;;;;;;;4.28;0.52;;;16.90;68.30;;;;;;4792089;30;20133;-72
2022/10/19 12:12:43;;;;;;;5.63;0.77;;;16.90;68.40;;;;;;4792565;30;20472;-73
2022/10/19 12:15:17;;;;;;;6.60;1.35;;;16.90;68.30;;;;;;4792241;30;20059;-72
2022/10/19 12:17:47;;;;;;;5.35;1.10;;;16.90;68.30;;;;;;4792069;30;20061;-72
2022/10/19 12:20:27;;;;;;;5.15;0.80;;;16.90;68.40;;;;;;4791686;30;20182;-72
2022/10/19 12:22:53;;;;;;;7.00;0.98;;;16.80;68.50;;;;;;4789399;30;20051;-74
2022/10/19 12:25:20;;;;;;;9.60;2.28;;;16.90;68.60;;;;;;4786387;30;20044;-74
2022/10/19 12:27:48;;;;;;;6.40;1.20;;;16.80;68.70;;;;;;4785288;30;20090;-74
2022/10/19 12:30:21;;;;;;;6.32;0.95;;;16.80;68.70;;;;;;4791816;30;20387;-72
2022/10/19 12:33:11;;;;;;;5.05;0.95;;;16.80;68.90;;;;;;4773062;30;20047;-73
2022/10/19 12:36:00;;;;;;;9.68;1.42;;;16.80;69.10;;;;;;4785856;30;20047;-73
2022/10/19 12:38:59;;;;;;;7.40;0.95;;;16.80;69.10;;;;;;4790931;30;20048;-72
2022/10/19 12:41:51;;;;;;;6.50;1.02;;;16.80;69.10;;;;;;4773080;30;20048;-73
2022/10/19 12:44:25;;;;;;;5.22;1.10;;;16.80;69.20;;;;;;4776468;30;20118;-75
2022/10/19 12:47:05;;;;;;;6.68;1.10;;;16.80;69.00;;;;;;4781288;30;20051;-75
2022/10/19 12:49:54;;;;;;;4.55;0.70;;;16.80;68.80;;;;;;4790404;30;20463;-73
2022/10/19 12:52:43;;;;;;;7.18;0.95;;;16.80;68.80;;;;;;4773172;30;20108;-74
2022/10/19 12:55:13;;;;;;;6.22;1.02;;;16.80;68.70;;;;;;4772712;30;20063;-74
2022/10/19 12:57:42;;;;;;;4.78;0.77;;;16.80;68.60;;;;;;4772755;30;20056;-72
2022/10/19 13:00:24;;;;;;;5.82;1.27;;;16.80;68.40;;;;;;4773271;30;20052;-74
2022/10/19 13:03:27;;;;;;;8.30;1.20;;;16.80;68.10;;;;;;4779435;30;20066;-73
2022/10/19 13:05:57;;;;;;;5.10;1.20;;;16.80;67.90;;;;;;4789520;30;20059;-74
2022/10/19 13:08:31;;;;;;;5.90;1.25;;;16.80;67.80;;;;;;4764677;30;20391;-77
2022/10/19 13:11:14;;;;;;;5.15;0.95;;;16.90;67.70;;;;;;4791399;30;20051;-78
2022/10/19 13:14:03;;;;;;;7.75;1.13;;;16.80;67.80;;;;;;4763128;30;20471;-79
2022/10/19 13:16:29;;;;;;;5.20;1.00;;;16.80;67.80;;;;;;4779574;29;20055;-76
2022/10/19 13:19:12;;;;;;;7.30;1.02;;;16.80;67.90;;;;;;4790229;30;20067;-77
2022/10/19 13:22:00;;;;;;;5.65;0.85;;;16.80;67.70;;;;;;4791205;30;20378;-76
2022/10/19 13:24:32;;;;;;;6.18;0.80;;;16.80;67.60;;;;;;4783120;30;20386;-76
2022/10/19 13:27:01;;;;;;;3.42;0.70;;;16.90;67.00;;;;;;4771315;30;20059;-76
2022/10/19 13:29:40;;;;;;;6.95;1.08;;;16.80;66.50;;;;;;4787549;30;20083;-78
2022/10/19 13:32:39;;;;;;;5.57;1.25;;;16.90;66.60;;;;;;4770461;30;20055;-76
2022/10/19 13:35:33;;;;;;;7.35;0.98;;;16.90;66.40;;;;;;4771633;30;20359;-74
2022/10/19 13:38:09;;;;;;;;;;;16.90;66.10;;;;;;4772511;30;20167;-75
2022/10/19 13:40:46;;;;;;;3.35;0.80;;;16.90;66.50;;;;;;4771622;30;19930;-75
2022/10/19 13:43:28;;;;;;;8.23;1.08;;;16.90;65.90;;;;;;4786844;30;20082;-75
2022/10/19 13:45:57;;;;;;;5.38;0.80;;;16.90;65.40;;;;;;4759503;30;20060;-75
2022/10/19 13:48:35;;;;;;;7.43;1.00;;;16.90;65.10;;;;;;4755182;30;20138;-72
2022/10/19 13:51:37;;;;;;;5.82;1.05;;;16.90;65.00;;;;;;4762594;30;20126;-73
2022/10/19 13:54:28;;;;;;;3.50;0.85;;;16.90;64.90;;;;;;4783876;29;20112;-76
2022/10/19 13:57:09;;;;;;;4.13;0.88;;;16.90;64.80;;;;;;4782336;30;20055;-78
2022/10/19 14:00:00;;;;;;;4.88;0.90;;;16.90;64.70;;;;;;4774217;30;20051;-77
2022/10/19 14:02:32;;;;;;;7.28;1.10;;;16.90;65.00;;;;;;4789006;30;20123;-77
2022/10/19 14:05:12;;;;;;;7.38;1.45;;;16.90;65.40;;;;;;4788681;30;20051;-77
2022/10/19 14:08:06;;;;;;;4.97;1.23;;;16.90;65.60;;;;;;4774613;30;20456;-77
2022/10/19 14:10:33;;;;;;;6.15;0.82;;;16.90;65.90;;;;;;4790105;30;20486;-78
2022/10/19 14:13:00;;;;;;;6.65;1.08;;;16.90;66.00;;;;;;4774978;30;20135;-74
2022/10/19 14:15:28;;;;;;;6.93;0.98;;;16.90;66.00;;;;;;4789869;30;20054;-72
2022/10/19 14:17:55;;;;;;;8.07;0.90;;;16.90;65.90;;;;;;4790083;30;20063;-73
2022/10/19 14:20:36;;;;;;;5.55;1.10;;;16.90;65.80;;;;;;4773709;30;20062;-72
2022/10/19 14:23:23;;;;;;;6.75;1.58;;;16.90;65.70;;;;;;4789875;30;20471;-72
2022/10/19 14:25:59;;;;;;;6.25;1.30;;;16.90;66.30;;;;;;4789878;30;20134;-72
2022/10/19 14:28:26;;;;;;;6.20;1.10;;;16.90;66.20;;;;;;4792642;29;20459;-73
2022/10/19 14:31:00;;;;;;;5.20;1.20;;;16.90;66.30;;;;;;4796087;30;20134;-73
2022/10/19 14:33:29;;;;;;;11.70;1.27;;;16.90;66.40;;;;;;4795883;30;20433;-78
2022/10/19 14:35:55;;;;;;;8.50;0.80;;;16.90;66.60;;;;;;4795599;30;20453;-71
2022/10/19 14:38:35;;;;;;;9.65;1.05;;;16.90;66.60;;;;;;4795458;30;20051;-75
2022/10/19 14:41:03;;;;;;;11.75;1.48;;;16.90;66.70;;;;;;4779233;30;20132;-75
2022/10/19 14:43:33;;;;;;;20.70;2.45;;;16.80;66.80;;;;;;4795514;30;20082;-74
2022/10/19 14:46:15;;;;;;;14.18;1.95;;;16.90;67.30;;;;;;4795869;30;20055;-74
2022/10/19 14:48:49;;;;;;;16.17;1.83;;;16.90;67.70;;;;;;4795643;30;20051;-75
2022/10/19 14:51:28;;;;;;;12.23;1.60;;;16.90;68.20;;;;;;4795505;30;20456;-75
2022/10/19 14:54:00;;;;;;;20.85;2.15;;;17.00;68.80;;;;;;4795690;30;20120;-75
2022/10/19 14:56:34;;;;;;;19.08;1.55;;;17.00;69.20;;;;;;4796314;30;20137;-75
2022/10/19 14:59:06;;;;;;;14.27;1.85;;;17.00;69.70;;;;;;4795865;30;20066;-74
2022/10/19 15:01:33;;;;;;;14.98;1.85;;;17.00;69.80;;;;;;4779735;30;20436;-76
2022/10/19 15:03:59;;;;;;;12.70;1.85;;;17.10;70.00;;;;;;4795575;30;20055;-73
2022/10/19 15:06:28;;;;;;;14.27;1.30;;;17.20;70.10;;;;;;4795628;30;20091;-74
2022/10/19 15:09:04;;;;;;;11.70;1.50;;;17.20;70.30;;;;;;4795300;30;20138;-75
2022/10/19 15:11:36;;;;;;;17.20;2.33;;;17.20;71.20;;;;;;4795868;30;20055;-74
2022/10/19 15:14:02;;;;;;;12.90;1.88;;;17.20;70.60;;;;;;4796004;30;20123;-75
2022/10/19 15:16:38;;;;;;;11.18;1.48;;;17.30;70.70;;;;;;4779385;30;20378;-76
2022/10/19 15:19:36;;;;;;;12.75;1.58;;;17.30;70.80;;;;;;4780350;30;20109;-75
2022/10/19 15:22:19;;;;;;;12.05;1.48;;;17.30;69.50;;;;;;4780441;30;20059;-76
2022/10/19 15:24:58;;;;;;;11.80;0.90;;;17.30;68.90;;;;;;4795597;30;20070;-78
2022/10/19 15:27:34;;;;;;;20.98;2.10;;;17.30;68.20;;;;;;4795348;30;20474;-78
2022/10/19 15:30:18;;;;;;;19.73;2.40;;;17.20;67.80;;;;;;4795334;30;20047;-78
2022/10/19 15:32:55;;;;;;;10.27;1.40;;;17.20;67.30;;;;;;4795204;30;20090;-79
2022/10/19 15:35:30;;;;;;;10.23;1.42;;;17.20;67.30;;;;;;4795333;30;20456;-81
2022/10/19 15:38:03;;;;;;;10.75;0.95;;;17.20;67.10;;;;;;4795480;30;20425;-78
2022/10/19 15:40:33;;;;;;;12.60;1.40;;;17.20;67.00;;;;;;4776331;30;20126;-78
2022/10/19 15:43:00;;;;;;;15.25;1.42;;;17.20;67.00;;;;;;4792363;30;20062;-78
2022/10/19 15:45:36;;;;;;;11.85;1.30;;;17.20;67.20;;;;;;4792528;30;20053;-79
2022/10/19 15:48:22;;;;;;;12.48;1.15;;;17.20;67.10;;;;;;4791224;30;20472;-79
2022/10/19 15:50:50;;;;;;;3.72;0.70;;;17.20;67.10;;;;;;4776844;30;20134;-80
2022/10/19 15:53:17;;;;;;;6.75;1.15;;;17.20;67.20;;;;;;4792118;30;20059;-80
2022/10/19 15:55:43;;;;;;;6.65;1.00;;;17.20;67.30;;;;;;4776476;30;20146;-78
2022/10/19 15:58:12;;;;;;;6.97;1.17;;;17.20;67.40;;;;;;4792333;30;20138;-79
2022/10/19 16:00:38;;;;;;;8.05;1.15;;;17.20;67.40;;;;;;4776492;30;20097;-78
2022/10/19 16:03:04;;;;;;;3.50;0.77;;;17.20;67.50;;;;;;4792174;30;20147;-79
2022/10/19 16:05:31;;;;;;;4.38;0.85;;;17.20;67.60;;;;;;4791956;30;20047;-77
2022/10/19 16:07:56;;;;;;;8.90;0.90;;;17.20;67.70;;;;;;4791994;30;20043;-76
2022/10/19 16:10:26;;;;;;;8.50;1.45;;;17.20;67.70;;;;;;4792254;30;20138;-77
2022/10/19 16:12:53;;;;;;;8.27;1.10;;;17.20;67.40;;;;;;4791891;30;20077;-78
2022/10/19 16:15:21;;;;;;;8.68;1.00;;;17.20;66.90;;;;;;4792172;30;20105;-77
2022/10/19 17:25:11;;;;;;;9.15;1.77;;;16.70;69.30;;;;;;5240696;24;20051;-70
2022/10/19 17:27:37;;;;;;;16.83;2.15;;;16.70;69.30;;;;;;4790175;30;20059;-76
2022/10/19 17:30:03;;;;;;;12.60;2.30;;;16.70;69.50;;;;;;4790300;30;20522;-79
2022/10/19 17:32:31;;;;;;;8.32;1.33;;;16.70;70.20;;;;;;4790759;30;20051;-78
2022/10/19 17:34:57;;;;;;;9.02;2.05;;;16.70;69.60;;;;;;4790388;30;20081;-77
2022/10/19 17:37:22;;;;;;;10.88;2.10;;;16.70;69.60;;;;;;4774480;30;20490;-77
2022/10/19 17:39:50;;;;;;;7.45;1.42;;;16.70;69.70;;;;;;4774666;30;20098;-79
2022/10/19 17:42:15;;;;;;;7.38;1.90;;;16.80;69.80;;;;;;4790751;30;20142;-77
2022/10/19 17:44:41;;;;;;;4.30;1.50;;;16.80;69.80;;;;;;4790254;30;20189;-79
2022/10/19 17:47:07;;;;;;;7.38;1.98;;;16.80;69.80;;;;;;4788987;30;20067;-79
2022/10/19 17:49:33;;;;;;;7.90;1.60;;;16.80;69.80;;;;;;4790302;30;20047;-80
2022/10/19 17:51:58;;;;;;;10.57;2.13;;;16.80;69.80;;;;;;4774671;30;20072;-79
2022/10/19 17:54:24;;;;;;;5.30;1.33;;;16.80;69.80;;;;;;4790207;30;20051;-78
2022/10/19 17:56:50;;;;;;;8.50;1.85;;;16.80;69.80;;;;;;4789253;30;20082;-78
2022/10/19 17:59:16;;;;;;;9.10;2.15;;;16.80;69.80;;;;;;4789561;30;20383;-77
2022/10/19 18:01:41;;;;;;;5.38;1.85;;;16.80;69.70;;;;;;4790226;30;20542;-79
2022/10/19 18:04:07;;;;;;;7.18;2.40;;;16.90;69.80;;;;;;4789478;29;20440;-78
2022/10/19 18:06:35;;;;;;;9.07;2.20;;;16.90;69.80;;;;;;4789907;30;20079;-80
2022/10/19 18:09:02;;;;;;;7.18;1.95;;;16.90;69.80;;;;;;4789877;30;20047;-82
2022/10/19 18:11:33;;;;;;;5.05;1.60;;;16.90;69.80;;;;;;4789021;30;20090;-78
2022/10/19 18:14:00;;;;;;;6.63;2.00;;;16.90;69.80;;;;;;4789335;30;20051;-76
2022/10/19 18:16:30;;;;;;;6.07;2.28;;;16.90;69.80;;;;;;4774419;30;20078;-79
2022/10/19 18:18:58;;;;;;;4.50;1.65;;;16.90;69.80;;;;;;4790180;30;20145;-78
2022/10/19 18:21:26;;;;;;;5.70;1.98;;;16.90;69.80;;;;;;4789918;30;20147;-78
2022/10/19 18:23:54;;;;;;;4.60;1.50;;;16.80;69.70;;;;;;4789688;30;20130;-77
2022/10/19 18:26:24;;;;;;;6.80;1.90;;;16.90;69.80;;;;;;4789571;30;20059;-80
2022/10/19 18:28:51;;;;;;;3.10;1.88;;;16.90;69.80;;;;;;4788957;30;20055;-80
2022/10/19 18:31:23;;;;;;;6.93;1.95;;;16.90;69.80;;;;;;4789765;30;20055;-77
2022/10/19 18:33:58;;;;;;;6.35;2.05;;;16.80;69.70;;;;;;4773891;30;20098;-80
2022/10/19 18:36:24;;;;;;;4.15;1.33;;;16.80;69.70;;;;;;4790016;30;20043;-80
2022/10/19 18:38:56;;;;;;;6.72;2.47;;;16.80;69.70;;;;;;4774542;30;20471;-80
2022/10/19 18:41:23;;;;;;;5.53;2.03;;;16.80;69.80;;;;;;4789570;30;20055;-74
2022/10/19 18:43:51;;;;;;;5.72;2.45;;;16.90;69.90;;;;;;4789071;30;20094;-79
2022/10/19 18:46:21;;;;;;;5.68;2.95;;;16.80;69.80;;;;;;4788504;30;20047;-82
2022/10/19 18:48:47;;;;;;;6.38;3.13;;;16.90;70.00;;;;;;4788659;30;20134;-72
2022/10/19 18:51:14;;;;;;;6.50;2.00;;;16.90;70.00;;;;;;4789440;30;20055;-78
2022/10/19 18:53:41;;;;;;;5.28;2.15;;;16.90;70.00;;;;;;4759233;30;20063;-79
2022/10/19 18:56:09;;;;;;;5.90;2.13;;;16.90;70.00;;;;;;4788952;30;20492;-79
2022/10/19 18:58:36;;;;;;;5.55;2.20;;;16.90;70.10;;;;;;4788895;30;20164;-82
2022/10/19 19:01:06;;;;;;;5.95;1.98;;;16.90;70.20;;;;;;4773801;30;20051;-79
2022/10/19 19:03:33;;;;;;;3.80;2.15;;;16.90;70.30;;;;;;4758839;30;20107;-78
2022/10/19 19:06:04;;;;;;;4.55;1.90;;;16.90;70.30;;;;;;4789149;30;20491;-81
2022/10/19 19:08:30;;;;;;;5.55;2.30;;;16.90;70.30;;;;;;4759264;30;20494;-79
2022/10/19 19:10:56;;;;;;;3.03;1.70;;;17.00;70.40;;;;;;4773878;30;20070;-80
2022/10/19 19:13:22;;;;;;;5.47;1.98;;;16.90;70.40;;;;;;4788348;30;20062;-75
2022/10/19 19:15:58;;;;;;;7.07;2.22;;;17.00;70.30;;;;;;4790921;29;20375;-74
2022/10/19 19:18:24;;;;;;;6.93;1.90;;;17.00;70.30;;;;;;4792699;30;20130;-78
2022/10/19 19:20:50;;;;;;;6.18;2.20;;;17.00;70.20;;;;;;4776869;30;20062;-79
2022/10/19 19:23:16;;;;;;;4.25;1.95;;;16.90;70.10;;;;;;4792699;30;20059;-79
2022/10/19 19:25:41;;;;;;;6.00;1.85;;;17.00;70.20;;;;;;4791590;30;20104;-80
2022/10/19 19:28:07;;;;;;;7.10;2.00;;;17.00;70.30;;;;;;4776739;30;20051;-78
2022/10/19 19:30:37;;;;;;;3.63;1.88;;;17.00;70.20;;;;;;4768513;30;20040;-81
2022/10/19 19:33:03;;;;;;;5.40;2.00;;;17.00;70.20;;;;;;4789419;30;20063;-78
2022/10/19 19:35:29;;;;;;;6.55;1.73;;;17.00;70.30;;;;;;4777105;30;20108;-78
2022/10/19 19:37:55;;;;;;;3.88;1.80;;;16.90;70.40;;;;;;4792607;30;20471;-79
2022/10/19 19:40:20;;;;;;;6.82;1.80;;;16.90;70.50;;;;;;4791682;30;20467;-81
2022/10/19 19:42:46;;;;;;;7.20;2.08;;;16.90;70.50;;;;;;4791428;30;20051;-80
2022/10/19 19:45:12;;;;;;;5.20;1.77;;;16.90;70.60;;;;;;4758710;30;20404;-81
2022/10/19 19:47:38;;;;;;;7.40;2.65;;;16.90;70.60;;;;;;4761051;30;20075;-80
2022/10/19 19:50:04;;;;;;;3.72;2.10;;;16.90;70.70;;;;;;4791757;30;20348;-80
2022/10/19 19:52:29;;;;;;;7.55;1.92;;;16.90;70.80;;;;;;4776447;30;20137;-78
2022/10/19 19:54:55;;;;;;;2.83;1.42;;;16.90;70.80;;;;;;4776499;30;20067;-79
2022/10/19 19:57:21;;;;;;;4.15;2.08;;;16.90;70.80;;;;;;4776710;30;20484;-78
2022/10/19 19:59:47;;;;;;;7.43;2.20;;;16.90;70.90;;;;;;4776361;30;20134;-78
2022/10/19 20:02:15;;;;;;;3.33;1.70;;;16.90;70.90;;;;;;4792644;30;20134;-78
2022/10/19 20:04:43;;;;;;;13.02;1.88;;;16.90;70.90;;;;;;4776563;30;20168;-81
2022/10/19 20:07:09;;;;;;;4.03;1.80;;;16.90;70.90;;;;;;4791979;30;20116;-79
2022/10/19 20:09:35;;;;;;;4.40;1.65;;;16.90;70.90;;;;;;4776138;30;20040;-80
2022/10/19 20:12:04;;;;;;;5.82;1.70;;;16.90;71.00;;;;;;4792196;30;20040;-79
2022/10/19 20:14:29;;;;;;;3.35;1.58;;;16.90;71.00;;;;;;4791189;30;20039;-81